EWG985T EVRA-EDDH
Flight info
| Callsign | EWG985T |
|---|---|
| Flight time | 1h 33m |
| Altitude | 36000 |
| Route | VALED DCT ADAXA DCT NINTA DCT BAGOS N850 MICOS/N0443F280 N850 BOGMU BOGMU3S |
| Aircraft | A320/M-SDE3FGHIRWY/LB1 |
Departure
| Time | 2026-04-25 11:08 |
|---|---|
| Airport | Riga International Airport (EVRA) |
Arrival
| Time | 2026-04-25 12:42 |
|---|---|
| Airport | Hamburg Helmut Schmidt Airport (EDDH) |
| Time | Latitude | Longitude | Altitude | Speed | Heading |
|---|---|---|---|---|---|
| 2026-04-25 10:32 | 56.92290 | 23.97676 | 43 ft | 0 kts | 186° |
| 2026-04-25 10:58 | 56.92297 | 23.97677 | 43 ft | 4 kts | 186° |
| 2026-04-25 10:58 | 56.92323 | 23.97683 | 42 ft | 4 kts | 193° |
| 2026-04-25 10:59 | 56.92345 | 23.97699 | 41 ft | 4 kts | 242° |
| 2026-04-25 10:59 | 56.92348 | 23.97714 | 39 ft | 0 kts | 276° |
| 2026-04-25 11:03 | 56.92348 | 23.97707 | 44 ft | 2 kts | 276° |
| 2026-04-25 11:03 | 56.92351 | 23.97649 | 44 ft | 6 kts | 275° |
| 2026-04-25 11:03 | 56.92356 | 23.97550 | 44 ft | 9 kts | 277° |
| 2026-04-25 11:03 | 56.92399 | 23.97512 | 44 ft | 9 kts | 7° |
| 2026-04-25 11:04 | 56.92466 | 23.97526 | 43 ft | 11 kts | 5° |
| 2026-04-25 11:04 | 56.92546 | 23.97539 | 44 ft | 12 kts | 5° |
| 2026-04-25 11:04 | 56.92635 | 23.97553 | 44 ft | 14 kts | 5° |
| 2026-04-25 11:04 | 56.92700 | 23.97564 | 44 ft | 15 kts | 5° |
| 2026-04-25 11:05 | 56.92846 | 23.97588 | 44 ft | 17 kts | 5° |
| 2026-04-25 11:05 | 56.92966 | 23.97607 | 42 ft | 17 kts | 5° |
| 2026-04-25 11:05 | 56.93082 | 23.97628 | 44 ft | 14 kts | 5° |
| 2026-04-25 11:05 | 56.93180 | 23.97607 | 44 ft | 15 kts | 335° |
| 2026-04-25 11:06 | 56.93286 | 23.97569 | 44 ft | 16 kts | 1° |
| 2026-04-25 11:06 | 56.93389 | 23.97586 | 43 ft | 13 kts | 5° |
| 2026-04-25 11:06 | 56.93472 | 23.97534 | 44 ft | 13 kts | 312° |
| 2026-04-25 11:06 | 56.93491 | 23.97410 | 44 ft | 10 kts | 275° |
| 2026-04-25 11:07 | 56.93486 | 23.97304 | 41 ft | 7 kts | 218° |
| 2026-04-25 11:07 | 56.93462 | 23.97294 | 43 ft | 0 kts | 185° |
| 2026-04-25 11:07 | 56.93429 | 23.97289 | 44 ft | 22 kts | 185° |
| 2026-04-25 11:07 | 56.93063 | 23.97229 | 44 ft | 81 kts | 185° |
| 2026-04-25 11:08 | 56.92318 | 23.97105 | 45 ft | 133 kts | 185° |
| 2026-04-25 11:08 | 56.91336 | 23.96953 | 453 ft | 144 kts | 187° |
| 2026-04-25 11:08 | 56.90330 | 23.96806 | 1105 ft | 147 kts | 191° |
| 2026-04-25 11:08 | 56.89287 | 23.96387 | 1495 ft | 163 kts | 214° |
| 2026-04-25 11:09 | 56.88645 | 23.94634 | 1843 ft | 181 kts | 255° |
| 2026-04-25 11:09 | 56.88518 | 23.92202 | 2239 ft | 205 kts | 265° |
| 2026-04-25 11:09 | 56.88374 | 23.89453 | 2740 ft | 228 kts | 261° |
| 2026-04-25 11:09 | 56.88119 | 23.86540 | 3661 ft | 234 kts | 259° |
| 2026-04-25 11:10 | 56.87820 | 23.83589 | 4686 ft | 238 kts | 258° |
| 2026-04-25 11:10 | 56.87604 | 23.81575 | 5373 ft | 240 kts | 258° |
| 2026-04-25 11:10 | 56.87157 | 23.77578 | 6650 ft | 245 kts | 258° |
| 2026-04-25 11:10 | 56.86812 | 23.74501 | 7581 ft | 248 kts | 259° |
| 2026-04-25 11:11 | 56.86465 | 23.71396 | 8559 ft | 250 kts | 259° |
| 2026-04-25 11:11 | 56.86113 | 23.68273 | 9511 ft | 252 kts | 259° |
| 2026-04-25 11:11 | 56.85753 | 23.65047 | 10008 ft | 270 kts | 260° |
| 2026-04-25 11:11 | 56.85367 | 23.61551 | 10355 ft | 289 kts | 260° |
| 2026-04-25 11:12 | 56.84964 | 23.57911 | 11028 ft | 295 kts | 260° |
| 2026-04-25 11:12 | 56.84550 | 23.54216 | 11793 ft | 299 kts | 260° |
| 2026-04-25 11:12 | 56.84128 | 23.50478 | 12566 ft | 302 kts | 260° |
| 2026-04-25 11:12 | 56.83701 | 23.46706 | 13317 ft | 305 kts | 260° |
| 2026-04-25 11:13 | 56.83269 | 23.42896 | 13997 ft | 307 kts | 260° |
| 2026-04-25 11:13 | 56.82838 | 23.39067 | 14696 ft | 309 kts | 260° |
| 2026-04-25 11:13 | 56.82402 | 23.35214 | 15379 ft | 310 kts | 261° |
| 2026-04-25 11:13 | 56.81963 | 23.31364 | 16125 ft | 310 kts | 261° |
| 2026-04-25 11:14 | 56.81525 | 23.27506 | 16850 ft | 311 kts | 261° |
| 2026-04-25 11:14 | 56.81083 | 23.23629 | 17550 ft | 313 kts | 261° |
| 2026-04-25 11:14 | 56.80634 | 23.19733 | 18178 ft | 315 kts | 261° |
| 2026-04-25 11:14 | 56.80181 | 23.15816 | 18815 ft | 316 kts | 262° |
| 2026-04-25 11:15 | 56.79726 | 23.11891 | 19355 ft | 317 kts | 262° |
| 2026-04-25 11:15 | 56.79274 | 23.07969 | 19546 ft | 316 kts | 262° |
| 2026-04-25 11:15 | 56.78824 | 23.04031 | 20151 ft | 317 kts | 262° |
| 2026-04-25 11:15 | 56.78370 | 23.00089 | 20808 ft | 318 kts | 262° |
| 2026-04-25 11:16 | 56.77451 | 22.92179 | 22072 ft | 320 kts | 263° |
| 2026-04-25 11:16 | 56.76985 | 22.88202 | 22713 ft | 321 kts | 263° |
| 2026-04-25 11:16 | 56.76517 | 22.84215 | 23284 ft | 322 kts | 263° |
| 2026-04-25 11:17 | 56.76045 | 22.80209 | 23785 ft | 324 kts | 263° |
| 2026-04-25 11:17 | 56.75571 | 22.76195 | 24284 ft | 325 kts | 263° |
| 2026-04-25 11:17 | 56.75094 | 22.72167 | 24807 ft | 326 kts | 263° |
| 2026-04-25 11:17 | 56.74612 | 22.68132 | 25326 ft | 326 kts | 263° |
| 2026-04-25 11:18 | 56.74127 | 22.64092 | 25822 ft | 327 kts | 263° |
| 2026-04-25 11:18 | 56.73639 | 22.60036 | 26310 ft | 328 kts | 263° |
| 2026-04-25 11:18 | 56.73150 | 22.55969 | 26778 ft | 330 kts | 263° |
| 2026-04-25 11:18 | 56.72655 | 22.51872 | 27245 ft | 332 kts | 263° |
| 2026-04-25 11:19 | 56.72157 | 22.47761 | 27705 ft | 333 kts | 263° |
| 2026-04-25 11:19 | 56.71667 | 22.43629 | 28174 ft | 334 kts | 264° |
| 2026-04-25 11:19 | 56.71220 | 22.39466 | 28631 ft | 336 kts | 264° |
| 2026-04-25 11:19 | 56.70795 | 22.35279 | 29074 ft | 337 kts | 265° |
| 2026-04-25 11:20 | 56.70374 | 22.31071 | 29508 ft | 339 kts | 265° |
| 2026-04-25 11:20 | 56.69947 | 22.26837 | 29856 ft | 341 kts | 264° |
| 2026-04-25 11:20 | 56.69512 | 22.22565 | 30130 ft | 345 kts | 264° |
| 2026-04-25 11:20 | 56.69065 | 22.18243 | 30373 ft | 350 kts | 264° |
| 2026-04-25 11:21 | 56.68606 | 22.13873 | 30608 ft | 354 kts | 264° |
| 2026-04-25 11:21 | 56.68139 | 22.09451 | 30850 ft | 358 kts | 263° |
| 2026-04-25 11:21 | 56.67664 | 22.04980 | 31082 ft | 362 kts | 263° |
| 2026-04-25 11:21 | 56.67184 | 22.00465 | 31357 ft | 365 kts | 263° |
| 2026-04-25 11:22 | 56.66700 | 21.95933 | 31694 ft | 366 kts | 263° |
| 2026-04-25 11:22 | 56.66376 | 21.92924 | 31899 ft | 367 kts | 263° |
| 2026-04-25 11:22 | 56.65718 | 21.86801 | 32293 ft | 370 kts | 263° |
| 2026-04-25 11:22 | 56.65222 | 21.82192 | 32596 ft | 373 kts | 262° |
| 2026-04-25 11:23 | 56.64721 | 21.77560 | 32893 ft | 375 kts | 262° |
| 2026-04-25 11:23 | 56.64214 | 21.72896 | 33191 ft | 377 kts | 262° |
| 2026-04-25 11:23 | 56.63701 | 21.68203 | 33490 ft | 380 kts | 262° |
| 2026-04-25 11:23 | 56.63182 | 21.63486 | 33747 ft | 382 kts | 262° |
| 2026-04-25 11:24 | 56.62656 | 21.58748 | 34009 ft | 384 kts | 262° |
| 2026-04-25 11:24 | 56.62127 | 21.53989 | 34274 ft | 385 kts | 262° |
| 2026-04-25 11:24 | 56.61604 | 21.49273 | 34525 ft | 387 kts | 262° |
| 2026-04-25 11:24 | 56.61069 | 21.44477 | 34746 ft | 388 kts | 262° |
| 2026-04-25 11:25 | 56.60531 | 21.39679 | 35048 ft | 388 kts | 261° |
| 2026-04-25 11:25 | 56.59989 | 21.34874 | 35302 ft | 389 kts | 261° |
| 2026-04-25 11:25 | 56.59445 | 21.30054 | 35580 ft | 390 kts | 261° |
| 2026-04-25 11:25 | 56.58900 | 21.25221 | 35818 ft | 392 kts | 261° |
| 2026-04-25 11:26 | 56.58349 | 21.20373 | 36049 ft | 393 kts | 261° |
| 2026-04-25 11:26 | 56.57793 | 21.15513 | 36267 ft | 394 kts | 261° |
| 2026-04-25 11:26 | 56.57234 | 21.10632 | 36487 ft | 396 kts | 261° |
| 2026-04-25 11:26 | 56.56671 | 21.05738 | 36696 ft | 397 kts | 261° |
| 2026-04-25 11:27 | 56.56105 | 21.00835 | 36875 ft | 398 kts | 261° |
| 2026-04-25 11:27 | 56.55537 | 20.95908 | 37077 ft | 400 kts | 261° |
| 2026-04-25 11:27 | 56.54967 | 20.90984 | 37277 ft | 401 kts | 261° |
| 2026-04-25 11:27 | 56.54773 | 20.89312 | 37344 ft | 401 kts | 261° |
| 2026-04-25 11:28 | 56.53996 | 20.82677 | 37553 ft | 403 kts | 261° |
| 2026-04-25 11:28 | 56.53411 | 20.77701 | 37569 ft | 404 kts | 261° |
| 2026-04-25 11:28 | 56.52246 | 20.67806 | 37576 ft | 405 kts | 261° |
| 2026-04-25 11:29 | 56.51065 | 20.57856 | 37588 ft | 404 kts | 260° |
| 2026-04-25 11:29 | 56.49878 | 20.47921 | 37550 ft | 403 kts | 260° |
| 2026-04-25 11:30 | 56.48690 | 20.38073 | 37591 ft | 399 kts | 260° |
| 2026-04-25 11:30 | 56.47498 | 20.28265 | 37604 ft | 399 kts | 260° |
| 2026-04-25 11:31 | 56.46298 | 20.18470 | 37606 ft | 399 kts | 260° |
| 2026-04-25 11:31 | 56.45096 | 20.08683 | 37605 ft | 399 kts | 260° |
| 2026-04-25 11:32 | 56.43883 | 19.98897 | 37605 ft | 399 kts | 259° |
| 2026-04-25 11:32 | 56.42657 | 19.89108 | 37592 ft | 400 kts | 259° |
| 2026-04-25 11:33 | 56.41419 | 19.79288 | 37594 ft | 402 kts | 259° |
| 2026-04-25 11:33 | 56.40173 | 19.69451 | 37590 ft | 402 kts | 259° |
| 2026-04-25 11:34 | 56.38921 | 19.59603 | 37597 ft | 403 kts | 259° |
| 2026-04-25 11:34 | 56.37658 | 19.49761 | 37573 ft | 403 kts | 259° |
| 2026-04-25 11:35 | 56.36386 | 19.39924 | 37603 ft | 402 kts | 259° |
| 2026-04-25 11:35 | 56.35111 | 19.30112 | 37614 ft | 402 kts | 259° |
| 2026-04-25 11:36 | 56.33839 | 19.20364 | 37606 ft | 403 kts | 259° |
| 2026-04-25 11:36 | 56.32542 | 19.10535 | 37611 ft | 403 kts | 259° |
| 2026-04-25 11:37 | 56.31231 | 19.00697 | 37614 ft | 404 kts | 259° |
| 2026-04-25 11:37 | 56.29907 | 18.90864 | 37616 ft | 404 kts | 259° |
| 2026-04-25 11:38 | 56.28705 | 18.80982 | 37620 ft | 404 kts | 261° |
| 2026-04-25 11:38 | 56.27660 | 18.71054 | 37628 ft | 404 kts | 262° |
| 2026-04-25 11:39 | 56.26597 | 18.61127 | 37638 ft | 404 kts | 262° |
| 2026-04-25 11:39 | 56.25485 | 18.51219 | 37597 ft | 404 kts | 261° |
| 2026-04-25 11:40 | 56.24351 | 18.41334 | 37617 ft | 403 kts | 261° |
| 2026-04-25 11:40 | 56.23218 | 18.31471 | 37642 ft | 402 kts | 261° |
| 2026-04-25 11:41 | 56.21554 | 18.21834 | 37646 ft | 405 kts | 254° |
| 2026-04-25 11:41 | 56.19652 | 18.12307 | 37646 ft | 405 kts | 254° |
| 2026-04-25 11:42 | 56.17741 | 18.02788 | 37642 ft | 405 kts | 254° |
| 2026-04-25 11:42 | 56.15825 | 17.93277 | 37664 ft | 405 kts | 254° |
| 2026-04-25 11:43 | 56.13902 | 17.83794 | 37676 ft | 405 kts | 254° |
| 2026-04-25 11:43 | 56.11973 | 17.74330 | 37673 ft | 404 kts | 254° |
| 2026-04-25 11:44 | 56.10044 | 17.64889 | 37644 ft | 403 kts | 254° |
| 2026-04-25 11:44 | 56.08109 | 17.55485 | 37667 ft | 402 kts | 254° |
| 2026-04-25 11:45 | 56.06171 | 17.46117 | 37670 ft | 401 kts | 254° |
| 2026-04-25 11:45 | 56.04235 | 17.36776 | 37681 ft | 400 kts | 254° |
| 2026-04-25 11:46 | 56.02293 | 17.27454 | 37679 ft | 400 kts | 254° |
| 2026-04-25 11:46 | 56.00344 | 17.18157 | 37696 ft | 399 kts | 254° |
| 2026-04-25 11:47 | 55.98395 | 17.08885 | 37693 ft | 398 kts | 254° |
| 2026-04-25 11:47 | 55.96442 | 16.99637 | 37696 ft | 398 kts | 254° |
| 2026-04-25 11:48 | 55.94485 | 16.90409 | 37623 ft | 397 kts | 254° |
| 2026-04-25 11:48 | 55.92523 | 16.81211 | 37657 ft | 397 kts | 254° |
| 2026-04-25 11:49 | 55.90564 | 16.72085 | 37676 ft | 397 kts | 254° |
| 2026-04-25 11:49 | 55.88588 | 16.62901 | 37685 ft | 397 kts | 254° |
| 2026-04-25 11:50 | 55.86610 | 16.53731 | 37692 ft | 397 kts | 254° |
| 2026-04-25 11:50 | 55.84617 | 16.44562 | 37705 ft | 397 kts | 254° |
| 2026-04-25 11:51 | 55.82620 | 16.35397 | 37707 ft | 397 kts | 254° |
| 2026-04-25 11:51 | 55.80620 | 16.26240 | 37709 ft | 397 kts | 254° |
| 2026-04-25 11:52 | 55.78602 | 16.17092 | 37709 ft | 397 kts | 254° |
| 2026-04-25 11:52 | 55.76580 | 16.07953 | 37717 ft | 399 kts | 254° |
| 2026-04-25 11:53 | 55.74540 | 15.98768 | 37706 ft | 400 kts | 254° |
| 2026-04-25 11:53 | 55.72490 | 15.89585 | 37716 ft | 400 kts | 254° |
| 2026-04-25 11:54 | 55.70435 | 15.80393 | 37728 ft | 401 kts | 254° |
| 2026-04-25 11:55 | 55.67352 | 15.66659 | 37724 ft | 402 kts | 254° |
| 2026-04-25 11:55 | 55.65271 | 15.57477 | 37724 ft | 402 kts | 254° |
| 2026-04-25 11:56 | 55.63177 | 15.48306 | 37746 ft | 402 kts | 253° |
| 2026-04-25 11:56 | 55.61082 | 15.39134 | 37742 ft | 402 kts | 254° |
| 2026-04-25 11:57 | 55.58980 | 15.29948 | 37733 ft | 404 kts | 253° |
| 2026-04-25 11:57 | 55.56861 | 15.20750 | 37746 ft | 404 kts | 254° |
| 2026-04-25 11:58 | 55.54729 | 15.11559 | 37752 ft | 404 kts | 253° |
| 2026-04-25 11:58 | 55.52596 | 15.02379 | 37760 ft | 404 kts | 253° |
| 2026-04-25 11:59 | 55.50455 | 14.93194 | 37761 ft | 405 kts | 253° |
| 2026-04-25 11:59 | 55.48307 | 14.84030 | 37772 ft | 404 kts | 253° |
| 2026-04-25 12:00 | 55.45073 | 14.70300 | 37779 ft | 405 kts | 253° |
| 2026-04-25 12:01 | 55.41824 | 14.56575 | 37775 ft | 405 kts | 253° |
| 2026-04-25 12:01 | 55.39641 | 14.47436 | 37814 ft | 405 kts | 253° |
| 2026-04-25 12:02 | 55.36368 | 14.33784 | 37814 ft | 403 kts | 253° |
| 2026-04-25 12:02 | 55.34185 | 14.24724 | 37822 ft | 402 kts | 253° |
| 2026-04-25 12:03 | 55.32016 | 14.15742 | 37816 ft | 402 kts | 253° |
| 2026-04-25 12:03 | 55.29828 | 14.06710 | 37819 ft | 402 kts | 253° |
| 2026-04-25 12:04 | 55.27630 | 13.97696 | 37836 ft | 402 kts | 253° |
| 2026-04-25 12:04 | 55.25418 | 13.88712 | 37788 ft | 401 kts | 253° |
| 2026-04-25 12:05 | 55.23202 | 13.79722 | 37801 ft | 402 kts | 253° |
| 2026-04-25 12:05 | 55.20991 | 13.70725 | 37814 ft | 402 kts | 253° |
| 2026-04-25 12:06 | 55.18768 | 13.61733 | 37827 ft | 403 kts | 253° |
| 2026-04-25 12:06 | 55.16532 | 13.52745 | 37826 ft | 403 kts | 253° |
| 2026-04-25 12:07 | 55.14280 | 13.43765 | 37851 ft | 403 kts | 253° |
| 2026-04-25 12:07 | 55.12025 | 13.34790 | 37852 ft | 403 kts | 253° |
| 2026-04-25 12:08 | 55.09769 | 13.25823 | 37860 ft | 402 kts | 253° |
| 2026-04-25 12:08 | 55.07511 | 13.16883 | 37852 ft | 403 kts | 253° |
| 2026-04-25 12:09 | 55.05246 | 13.07950 | 37853 ft | 403 kts | 253° |
| 2026-04-25 12:09 | 55.02963 | 12.99022 | 37859 ft | 403 kts | 253° |
| 2026-04-25 12:10 | 55.00675 | 12.90102 | 37874 ft | 403 kts | 252° |
| 2026-04-25 12:10 | 54.98381 | 12.81188 | 37884 ft | 403 kts | 252° |
| 2026-04-25 12:11 | 54.96082 | 12.72279 | 37880 ft | 403 kts | 252° |
| 2026-04-25 12:11 | 54.93775 | 12.63390 | 37886 ft | 403 kts | 252° |
| 2026-04-25 12:12 | 54.91859 | 12.55998 | 37885 ft | 403 kts | 253° |
| 2026-04-25 12:12 | 54.89149 | 12.45620 | 37897 ft | 404 kts | 252° |
| 2026-04-25 12:13 | 54.86820 | 12.36740 | 37754 ft | 405 kts | 252° |
| 2026-04-25 12:13 | 54.85653 | 12.32305 | 37459 ft | 403 kts | 252° |
| 2026-04-25 12:13 | 54.84488 | 12.27884 | 36970 ft | 402 kts | 252° |
| 2026-04-25 12:14 | 54.83718 | 12.24968 | 36645 ft | 401 kts | 252° |
| 2026-04-25 12:14 | 54.82555 | 12.20571 | 36158 ft | 401 kts | 252° |
| 2026-04-25 12:14 | 54.81395 | 12.16192 | 35677 ft | 400 kts | 253° |
| 2026-04-25 12:14 | 54.80232 | 12.11810 | 35201 ft | 399 kts | 253° |
| 2026-04-25 12:15 | 54.79070 | 12.07441 | 34735 ft | 399 kts | 253° |
| 2026-04-25 12:15 | 54.77911 | 12.03082 | 34273 ft | 398 kts | 253° |
| 2026-04-25 12:15 | 54.76754 | 11.98734 | 33818 ft | 398 kts | 253° |
| 2026-04-25 12:15 | 54.75594 | 11.94382 | 33288 ft | 398 kts | 253° |
| 2026-04-25 12:16 | 54.74429 | 11.90026 | 32765 ft | 399 kts | 253° |
| 2026-04-25 12:16 | 54.73260 | 11.85671 | 32260 ft | 399 kts | 253° |
| 2026-04-25 12:16 | 54.72084 | 11.81315 | 31763 ft | 400 kts | 253° |
| 2026-04-25 12:16 | 54.70907 | 11.76965 | 31273 ft | 400 kts | 253° |
| 2026-04-25 12:17 | 54.69725 | 11.72594 | 30790 ft | 401 kts | 253° |
| 2026-04-25 12:17 | 54.68542 | 11.68215 | 30285 ft | 404 kts | 252° |
| 2026-04-25 12:17 | 54.67349 | 11.63805 | 29772 ft | 406 kts | 252° |
| 2026-04-25 12:17 | 54.66148 | 11.59378 | 29202 ft | 408 kts | 252° |
| 2026-04-25 12:18 | 54.64939 | 11.54943 | 28643 ft | 409 kts | 252° |
| 2026-04-25 12:18 | 54.63720 | 11.50499 | 28066 ft | 409 kts | 251° |
| 2026-04-25 12:18 | 54.62506 | 11.46074 | 27638 ft | 410 kts | 251° |
| 2026-04-25 12:18 | 54.61287 | 11.41624 | 27371 ft | 409 kts | 251° |
| 2026-04-25 12:19 | 54.59269 | 11.34270 | 26685 ft | 408 kts | 251° |
| 2026-04-25 12:19 | 54.57380 | 11.28542 | 26327 ft | 421 kts | 239° |
| 2026-04-25 12:19 | 54.55233 | 11.24988 | 25841 ft | 438 kts | 223° |
| 2026-04-25 12:20 | 54.52636 | 11.22270 | 25316 ft | 445 kts | 218° |
| 2026-04-25 12:20 | 54.49947 | 11.19610 | 24790 ft | 446 kts | 218° |
| 2026-04-25 12:20 | 54.47243 | 11.16956 | 24274 ft | 448 kts | 217° |
| 2026-04-25 12:20 | 54.44529 | 11.14297 | 23791 ft | 450 kts | 217° |
| 2026-04-25 12:21 | 54.41809 | 11.11625 | 23215 ft | 451 kts | 217° |
| 2026-04-25 12:21 | 54.39085 | 11.08945 | 22683 ft | 452 kts | 217° |
| 2026-04-25 12:21 | 54.36353 | 11.06249 | 22134 ft | 454 kts | 217° |
| 2026-04-25 12:21 | 54.33612 | 11.03540 | 21586 ft | 455 kts | 217° |
| 2026-04-25 12:22 | 54.31030 | 11.00651 | 21253 ft | 428 kts | 227° |
| 2026-04-25 12:22 | 54.29034 | 10.97160 | 21117 ft | 394 kts | 237° |
| 2026-04-25 12:22 | 54.27149 | 10.93901 | 20994 ft | 383 kts | 224° |
| 2026-04-25 12:22 | 54.24782 | 10.91871 | 20807 ft | 381 kts | 206° |
| 2026-04-25 12:23 | 54.22297 | 10.90558 | 20605 ft | 367 kts | 205° |
| 2026-04-25 12:23 | 54.19865 | 10.89329 | 20299 ft | 363 kts | 205° |
| 2026-04-25 12:23 | 54.17456 | 10.88127 | 19956 ft | 359 kts | 205° |
| 2026-04-25 12:23 | 54.15063 | 10.86943 | 19614 ft | 357 kts | 205° |
| 2026-04-25 12:24 | 54.12685 | 10.85773 | 19221 ft | 355 kts | 205° |
| 2026-04-25 12:24 | 54.10312 | 10.84614 | 18824 ft | 354 kts | 205° |
| 2026-04-25 12:24 | 54.07950 | 10.83466 | 18422 ft | 352 kts | 205° |
| 2026-04-25 12:24 | 54.06229 | 10.82634 | 18109 ft | 351 kts | 205° |
| 2026-04-25 12:25 | 54.03888 | 10.81508 | 17655 ft | 349 kts | 205° |
| 2026-04-25 12:25 | 54.01556 | 10.80393 | 17176 ft | 347 kts | 205° |
| 2026-04-25 12:25 | 53.99240 | 10.79284 | 16681 ft | 345 kts | 205° |
| 2026-04-25 12:25 | 53.96939 | 10.78183 | 16221 ft | 343 kts | 205° |
| 2026-04-25 12:26 | 53.94650 | 10.77094 | 15767 ft | 340 kts | 205° |
| 2026-04-25 12:26 | 53.92375 | 10.76018 | 15323 ft | 338 kts | 205° |
| 2026-04-25 12:26 | 53.90113 | 10.74955 | 14879 ft | 336 kts | 205° |
| 2026-04-25 12:26 | 53.87861 | 10.73901 | 14443 ft | 334 kts | 205° |
| 2026-04-25 12:27 | 53.85623 | 10.72859 | 14016 ft | 333 kts | 205° |
| 2026-04-25 12:27 | 53.83400 | 10.71831 | 13560 ft | 331 kts | 205° |
| 2026-04-25 12:27 | 53.81183 | 10.70809 | 13077 ft | 329 kts | 204° |
| 2026-04-25 12:27 | 53.78986 | 10.69794 | 12606 ft | 327 kts | 205° |
| 2026-04-25 12:28 | 53.76794 | 10.68782 | 12095 ft | 325 kts | 204° |
| 2026-04-25 12:28 | 53.74620 | 10.67751 | 11637 ft | 324 kts | 204° |
| 2026-04-25 12:28 | 53.72462 | 10.66708 | 11188 ft | 322 kts | 205° |
| 2026-04-25 12:28 | 53.70307 | 10.65665 | 10740 ft | 321 kts | 205° |
| 2026-04-25 12:29 | 53.68181 | 10.64642 | 10299 ft | 315 kts | 205° |
| 2026-04-25 12:29 | 53.66090 | 10.63647 | 9854 ft | 308 kts | 204° |
| 2026-04-25 12:29 | 53.64062 | 10.62696 | 9447 ft | 297 kts | 204° |
| 2026-04-25 12:29 | 53.62105 | 10.61793 | 9105 ft | 286 kts | 204° |
| 2026-04-25 12:30 | 53.60217 | 10.60938 | 8816 ft | 275 kts | 204° |
| 2026-04-25 12:30 | 53.58413 | 10.60147 | 8634 ft | 262 kts | 204° |
| 2026-04-25 12:30 | 53.56654 | 10.59388 | 8364 ft | 262 kts | 204° |
| 2026-04-25 12:30 | 53.54891 | 10.58624 | 7988 ft | 261 kts | 204° |
| 2026-04-25 12:31 | 53.53143 | 10.57848 | 7611 ft | 258 kts | 207° |
| 2026-04-25 12:31 | 53.51669 | 10.56425 | 7214 ft | 235 kts | 235° |
| 2026-04-25 12:31 | 53.50677 | 10.54319 | 6853 ft | 228 kts | 244° |
| 2026-04-25 12:31 | 53.49775 | 10.52131 | 6456 ft | 228 kts | 244° |
| 2026-04-25 12:32 | 53.48882 | 10.49914 | 6018 ft | 230 kts | 244° |
| 2026-04-25 12:32 | 53.47995 | 10.47701 | 5638 ft | 225 kts | 245° |
| 2026-04-25 12:32 | 53.47129 | 10.45568 | 5404 ft | 219 kts | 244° |
| 2026-04-25 12:32 | 53.46278 | 10.43455 | 5176 ft | 217 kts | 244° |
| 2026-04-25 12:33 | 53.45436 | 10.41377 | 4957 ft | 211 kts | 244° |
| 2026-04-25 12:33 | 53.44615 | 10.39371 | 4720 ft | 207 kts | 244° |
| 2026-04-25 12:33 | 53.43810 | 10.37380 | 4459 ft | 205 kts | 245° |
| 2026-04-25 12:33 | 53.43357 | 10.35218 | 4211 ft | 194 kts | 269° |
| 2026-04-25 12:34 | 53.43303 | 10.32981 | 4030 ft | 191 kts | 274° |
| 2026-04-25 12:34 | 53.43287 | 10.30814 | 3983 ft | 191 kts | 274° |
| 2026-04-25 12:34 | 53.43279 | 10.28676 | 3975 ft | 184 kts | 274° |
| 2026-04-25 12:34 | 53.43276 | 10.27282 | 3888 ft | 177 kts | 274° |
| 2026-04-25 12:35 | 53.43264 | 10.24651 | 3707 ft | 162 kts | 274° |
| 2026-04-25 12:35 | 53.43251 | 10.22788 | 3480 ft | 159 kts | 274° |
| 2026-04-25 12:35 | 53.43251 | 10.20933 | 3248 ft | 159 kts | 274° |
| 2026-04-25 12:35 | 53.43427 | 10.19135 | 3029 ft | 158 kts | 296° |
| 2026-04-25 12:36 | 53.44023 | 10.17582 | 3003 ft | 159 kts | 303° |
| 2026-04-25 12:36 | 53.44674 | 10.16072 | 3001 ft | 160 kts | 304° |
| 2026-04-25 12:36 | 53.45474 | 10.14815 | 2997 ft | 164 kts | 326° |
| 2026-04-25 12:36 | 53.46541 | 10.14017 | 3002 ft | 167 kts | 332° |
| 2026-04-25 12:37 | 53.47616 | 10.13288 | 3000 ft | 166 kts | 332° |
| 2026-04-25 12:37 | 53.48687 | 10.12556 | 3002 ft | 166 kts | 332° |
| 2026-04-25 12:37 | 53.49735 | 10.11752 | 3005 ft | 166 kts | 329° |
| 2026-04-25 12:37 | 53.50765 | 10.10931 | 2930 ft | 166 kts | 329° |
| 2026-04-25 12:38 | 53.51799 | 10.10084 | 2758 ft | 164 kts | 327° |
| 2026-04-25 12:38 | 53.52761 | 10.09119 | 2497 ft | 159 kts | 322° |
| 2026-04-25 12:38 | 53.53626 | 10.08183 | 2285 ft | 136 kts | 321° |
| 2026-04-25 12:38 | 53.54388 | 10.07388 | 2061 ft | 123 kts | 321° |
| 2026-04-25 12:39 | 53.55105 | 10.06620 | 1857 ft | 121 kts | 321° |
| 2026-04-25 12:39 | 53.55802 | 10.05953 | 1666 ft | 119 kts | 324° |
| 2026-04-25 12:39 | 53.56534 | 10.05310 | 1523 ft | 118 kts | 323° |
| 2026-04-25 12:39 | 53.57253 | 10.04649 | 1398 ft | 119 kts | 324° |
| 2026-04-25 12:40 | 53.57978 | 10.04008 | 1260 ft | 117 kts | 325° |
| 2026-04-25 12:40 | 53.58692 | 10.03364 | 1093 ft | 117 kts | 324° |
| 2026-04-25 12:40 | 53.59424 | 10.02723 | 920 ft | 118 kts | 326° |
| 2026-04-25 12:40 | 53.60150 | 10.02097 | 757 ft | 119 kts | 324° |
| 2026-04-25 12:41 | 53.60884 | 10.01463 | 572 ft | 116 kts | 323° |
| 2026-04-25 12:41 | 53.61612 | 10.00836 | 378 ft | 119 kts | 324° |
| 2026-04-25 12:41 | 53.62332 | 10.00211 | 212 ft | 116 kts | 323° |
| 2026-04-25 12:41 | 53.63045 | 9.99587 | 72 ft | 114 kts | 326° |
| 2026-04-25 12:42 | 53.63656 | 9.99056 | 50 ft | 78 kts | 333° |
| 2026-04-25 12:42 | 53.63911 | 9.98845 | 49 ft | 45 kts | 333° |
| 2026-04-25 12:42 | 53.64211 | 9.98583 | 52 ft | 34 kts | 333° |
| 2026-04-25 12:42 | 53.64423 | 9.98413 | 48 ft | 29 kts | 339° |
| 2026-04-25 12:43 | 53.64582 | 9.98372 | 52 ft | 19 kts | 4° |
| 2026-04-25 12:43 | 53.64675 | 9.98395 | 52 ft | 12 kts | 18° |
| 2026-04-25 12:43 | 53.64673 | 9.98522 | 51 ft | 14 kts | 146° |